Time;durP1;ratioP1;P1;durP2;ratioP2;P2;SDS_P1;SDS_P2;PMS_P1;PMS_P2;Temp;Humidity;BMP_temperature;BMP_pressure;BME280_temperature;BME280_humidity;BME280_pressure;Samples;Min_cycle;Max_cycle;Signal;HPM_P1;HPM_P2
2021/10/05 00:00:51;;;;;;;25.60;19.37;;;;;;;10.05;96.00;95406.47;5044822;28;20173;-78
2021/10/05 00:03:16;;;;;;;27.07;20.33;;;;;;;10.07;95.79;95409.72;5027715;28;20178;-78
2021/10/05 00:05:41;;;;;;;26.00;19.53;;;;;;;10.08;95.97;95411.38;5026978;28;20235;-79
2021/10/05 00:08:07;;;;;;;28.37;21.20;;;;;;;10.05;96.08;95416.84;5026694;28;20198;-77
2021/10/05 00:10:32;;;;;;;28.30;20.13;;;;;;;10.07;96.44;95412.31;5025999;28;20201;-77
2021/10/05 00:12:57;;;;;;;27.53;20.00;;;;;;;10.03;96.07;95408.41;5043750;28;20177;-77
2021/10/05 00:15:23;;;;;;;26.90;20.57;;;;;;;10.04;96.37;95412.63;5042886;28;20174;-78
2021/10/05 00:17:48;;;;;;;28.50;19.73;;;;;;;10.04;96.02;95403.06;5026775;28;20213;-78
2021/10/05 00:20:14;;;;;;;25.90;19.30;;;;;;;10.03;96.51;95405.81;5027233;28;20224;-78
2021/10/05 00:22:40;;;;;;;29.47;21.37;;;;;;;9.99;96.51;95399.31;5043524;28;20225;-79
2021/10/05 00:25:06;;;;;;;27.23;20.47;;;;;;;10.00;96.72;95390.56;5027321;28;20174;-77
2021/10/05 00:27:31;;;;;;;28.60;21.73;;;;;;;10.01;96.97;95389.59;5026792;28;20204;-79
2021/10/05 00:29:56;;;;;;;29.83;19.70;;;;;;;10.09;96.28;95384.47;5027638;28;20185;-79
2021/10/05 00:32:22;;;;;;;24.70;19.20;;;;;;;10.04;96.03;95384.09;5043815;28;20712;-78
2021/10/05 00:34:47;;;;;;;26.57;19.00;;;;;;;10.04;96.13;95376.31;5044171;28;20181;-78
2021/10/05 00:37:12;;;;;;;25.73;19.70;;;;;;;10.00;96.35;95368.03;5041915;28;20202;-78
2021/10/05 00:39:38;;;;;;;26.20;19.33;;;;;;;9.99;96.08;95373.34;5043584;28;20232;-78
2021/10/05 00:42:04;;;;;;;27.20;19.87;;;;;;;9.98;96.15;95371.69;5056354;28;20181;-77
2021/10/05 00:44:34;;;;;;;28.07;20.43;;;;;;;9.96;96.63;95358.06;5045565;28;20242;-77
2021/10/05 00:47:04;;;;;;;30.13;20.90;;;;;;;9.91;97.13;95359.34;5045655;28;20192;-77
2021/10/05 00:49:30;;;;;;;31.53;20.33;;;;;;;9.89;97.58;95345.72;5046162;28;20646;-77
2021/10/05 00:51:56;;;;;;;26.20;18.60;;;;;;;9.84;97.43;95345.34;5073890;28;20242;-80
2021/10/05 00:54:22;;;;;;;25.33;18.83;;;;;;;9.86;97.90;95347.78;5066911;28;20207;-79
2021/10/05 00:56:48;;;;;;;27.40;18.77;;;;;;;9.91;97.86;95348.97;5026417;28;20194;-77
2021/10/05 00:59:13;;;;;;;24.30;17.77;;;;;;;9.91;97.33;95338.59;5026239;28;20177;-78
2021/10/05 01:01:38;;;;;;;24.47;18.27;;;;;;;9.92;97.38;95336.81;5042121;28;20178;-79
2021/10/05 01:04:03;;;;;;;23.27;17.27;;;;;;;9.95;97.39;95331.31;5040459;28;20193;-79
2021/10/05 01:06:29;;;;;;;22.40;16.07;;;;;;;9.92;97.62;95324.66;5041835;28;20185;-78
2021/10/05 01:08:54;;;;;;;21.13;16.00;;;;;;;9.82;97.94;95316.16;5060560;28;20527;-80
2021/10/05 01:11:20;;;;;;;24.17;17.20;;;;;;;9.78;98.17;95312.19;5044828;28;20229;-78
2021/10/05 01:13:45;;;;;;;24.67;17.03;;;;;;;9.86;98.22;95314.06;5044423;28;20687;-78
2021/10/05 01:16:10;;;;;;;22.73;16.70;;;;;;;9.86;98.48;95309.69;5045525;28;20204;-79
2021/10/05 01:18:35;;;;;;;25.90;17.70;;;;;;;9.88;98.38;95299.97;5046462;28;20197;-79
2021/10/05 01:21:04;;;;;;;26.80;18.20;;;;;;;9.90;98.47;95292.88;5046176;28;20170;-77
2021/10/05 01:23:30;;;;;;;24.40;17.13;;;;;;;9.90;98.27;95300.66;5063121;28;20173;-78
2021/10/05 01:25:55;;;;;;;27.53;18.00;;;;;;;9.81;98.00;95295.56;5063227;28;20174;-77
2021/10/05 01:28:23;;;;;;;26.50;18.37;;;;;;;9.86;98.49;95288.13;5063302;28;20194;-78
2021/10/05 01:30:48;;;;;;;26.33;17.70;;;;;;;9.91;97.87;95299.69;5075341;28;20251;-80
2021/10/05 01:33:14;;;;;;;29.67;19.40;;;;;;;9.92;98.27;95292.72;5047920;28;20174;-77
2021/10/05 01:35:39;;;;;;;31.10;19.63;;;;;;;9.91;97.87;95297.09;5046357;28;20567;-78
2021/10/05 01:38:04;;;;;;;31.60;21.57;;;;;;;9.89;97.24;95293.00;5030073;28;20201;-79
2021/10/05 01:40:30;;;;;;;29.73;19.80;;;;;;;9.90;97.50;95297.25;5030067;28;20182;-79
2021/10/05 01:42:55;;;;;;;28.57;20.40;;;;;;;9.88;97.16;95292.19;5064149;28;20185;-78
2021/10/05 01:45:20;;;;;;;29.87;20.30;;;;;;;9.92;97.41;95292.72;5045975;28;20655;-80
2021/10/05 01:47:46;;;;;;;30.50;19.90;;;;;;;9.90;97.37;95294.66;5079754;28;20777;-79
2021/10/05 01:50:11;;;;;;;29.00;19.87;;;;;;;9.94;97.31;95293.38;5046075;28;20178;-79
2021/10/05 01:52:37;;;;;;;31.57;20.47;;;;;;;9.95;97.41;95292.41;5029831;28;20201;-79
2021/10/05 01:55:06;;;;;;;29.43;20.40;;;;;;;9.97;97.14;95293.06;5044228;28;20174;-78
2021/10/05 01:57:32;;;;;;;29.70;20.10;;;;;;;9.94;96.96;95280.41;5046181;28;20204;-79
2021/10/05 01:59:57;;;;;;;29.60;20.27;;;;;;;9.94;96.85;95286.41;5054164;28;20193;-78
2021/10/05 02:02:23;;;;;;;28.93;20.00;;;;;;;9.98;96.53;95291.28;5045000;28;20181;-77
2021/10/05 02:04:48;;;;;;;28.70;18.93;;;;;;;9.98;97.04;95280.91;5038937;28;20234;-79
2021/10/05 02:07:14;;;;;;;26.10;18.63;;;;;;;10.00;96.95;95284.19;5039867;28;20197;-78
2021/10/05 02:09:39;;;;;;;24.43;17.73;;;;;;;9.98;97.08;95275.72;5039875;28;20255;-78
2021/10/05 02:12:05;;;;;;;23.67;16.93;;;;;;;10.00;96.75;95284.19;5040270;28;20209;-78
2021/10/05 02:14:31;;;;;;;24.10;17.60;;;;;;;9.98;97.01;95286.09;5022804;28;20193;-78
2021/10/05 02:16:56;;;;;;;27.07;17.50;;;;;;;9.93;96.88;95281.38;5040075;28;20202;-79
2021/10/05 02:19:21;;;;;;;24.83;17.23;;;;;;;9.92;97.15;95277.97;5023478;28;20190;-79
2021/10/05 02:21:47;;;;;;;25.40;16.70;;;;;;;9.92;97.15;95274.56;5022746;28;20559;-79
2021/10/05 02:26:44;;;;;;;28.53;19.13;;;;;;;9.83;97.39;95268.50;5040136;28;20182;-78
2021/10/05 02:29:09;;;;;;;25.93;17.27;;;;;;;9.91;97.79;95268.56;5039809;28;20180;-78
2021/10/05 02:31:34;;;;;;;25.93;17.63;;;;;;;9.89;97.51;95260.13;5039587;28;20673;-78
2021/10/05 02:34:00;;;;;;;28.03;18.93;;;;;;;9.87;97.49;95250.84;5022224;28;20273;-78
2021/10/05 02:36:25;;;;;;;28.70;18.87;;;;;;;9.90;97.48;95247.97;5057918;28;20663;-78
2021/10/05 02:38:51;;;;;;;28.00;18.10;;;;;;;9.90;97.24;95248.78;5056027;28;20257;-78
2021/10/05 02:41:16;;;;;;;29.80;17.90;;;;;;;9.93;97.42;95242.47;5073110;28;20227;-78
2021/10/05 02:43:42;;;;;;;27.17;17.43;;;;;;;9.97;97.47;95241.19;5057976;28;20554;-78
2021/10/05 02:46:07;;;;;;;27.37;17.07;;;;;;;10.01;97.38;95231.34;5039846;28;20208;-78
2021/10/05 02:48:33;;;;;;;23.03;16.33;;;;;;;9.99;97.10;95236.69;5039715;28;20281;-79
2021/10/05 02:50:58;;;;;;;25.30;17.17;;;;;;;9.92;97.17;95233.88;5039554;28;20225;-79
2021/10/05 02:53:23;;;;;;;27.17;16.83;;;;;;;9.96;97.54;95230.97;5022802;28;20178;-77
2021/10/05 02:55:49;;;;;;;22.07;14.57;;;;;;;9.94;97.47;95229.34;5039180;28;20181;-78
2021/10/05 02:58:15;;;;;;;20.33;13.47;;;;;;;9.93;97.13;95238.09;5022887;28;20197;-78
2021/10/05 03:00:41;;;;;;;19.10;12.47;;;;;;;9.93;97.53;95230.31;5039615;28;20259;-78
2021/10/05 03:03:06;;;;;;;19.33;12.83;;;;;;;9.94;97.73;95231.94;5040182;28;20181;-78
2021/10/05 03:05:32;;;;;;;18.97;12.27;;;;;;;9.94;97.55;95226.75;5022429;28;20186;-78
2021/10/05 03:07:57;;;;;;;19.17;12.77;;;;;;;9.95;97.55;95224.97;5039376;28;20196;-80
2021/10/05 03:10:23;;;;;;;22.47;13.80;;;;;;;9.93;97.31;95232.09;5038879;28;20178;-78
2021/10/05 03:12:48;;;;;;;21.87;13.30;;;;;;;9.94;97.54;95224.16;5023709;28;20232;-79
2021/10/05 03:15:15;;;;;;;17.43;11.73;;;;;;;9.98;97.59;95226.44;5055724;28;20166;-79
2021/10/05 03:17:40;;;;;;;19.27;11.27;;;;;;;9.98;97.51;95221.25;5022669;28;20269;-78
2021/10/05 03:20:06;;;;;;;17.40;11.30;;;;;;;9.99;97.66;95222.91;5039164;28;20233;-78
2021/10/05 03:22:32;;;;;;;18.27;12.30;;;;;;;10.01;97.71;95215.78;5038161;28;20189;-79
2021/10/05 03:24:57;;;;;;;20.37;12.17;;;;;;;9.94;97.17;95211.19;5055433;28;20197;-80
2021/10/05 03:27:22;;;;;;;14.83;9.53;;;;;;;9.94;97.31;95213.78;5039295;28;20678;-78
2021/10/05 03:29:48;;;;;;;16.40;11.23;;;;;;;9.92;97.22;95212.31;5039465;28;20174;-79
2021/10/05 03:32:13;;;;;;;17.37;11.97;;;;;;;9.91;97.24;95218.47;5055229;28;20289;-78
2021/10/05 03:34:38;;;;;;;19.03;12.03;;;;;;;9.89;97.17;95213.44;5037406;28;20180;-80
2021/10/05 03:37:04;;;;;;;17.53;11.43;;;;;;;9.88;97.28;95204.00;5055701;28;20212;-78
2021/10/05 03:39:29;;;;;;;19.30;12.90;;;;;;;9.87;97.15;95211.94;5039663;28;20716;-79
2021/10/05 03:41:54;;;;;;;20.03;12.63;;;;;;;9.88;97.40;95198.81;5022264;28;20535;-78
2021/10/05 03:44:20;;;;;;;21.87;13.03;;;;;;;9.92;97.40;95194.97;5056652;28;20201;-77
2021/10/05 03:46:45;;;;;;;18.90;11.80;;;;;;;9.93;97.22;95201.78;5022561;28;20571;-79
2021/10/05 03:49:10;;;;;;;18.27;12.10;;;;;;;9.90;96.95;95193.50;5038255;28;20174;-78
2021/10/05 03:51:36;;;;;;;19.07;11.70;;;;;;;9.94;97.63;95179.25;5038256;28;20440;-77
2021/10/05 03:54:01;;;;;;;20.70;12.80;;;;;;;9.92;97.19;95168.22;5021062;28;20203;-78
2021/10/05 03:56:26;;;;;;;21.80;14.03;;;;;;;9.96;97.45;95173.91;5039114;28;20188;-78
2021/10/05 03:58:52;;;;;;;25.07;16.30;;;;;;;9.93;97.49;95182.81;5022477;28;20181;-78
2021/10/05 04:01:17;;;;;;;25.73;16.07;;;;;;;9.94;97.42;95192.22;5055428;28;20177;-79
2021/10/05 04:03:42;;;;;;;21.83;13.23;;;;;;;9.96;97.45;95203.25;5038239;28;20189;-79
2021/10/05 04:06:11;;;;;;;18.20;11.77;;;;;;;9.93;97.28;95200.97;5043162;28;20243;-77
2021/10/05 04:08:37;;;;;;;20.37;12.03;;;;;;;9.93;97.64;95199.19;5057386;28;20207;-79
2021/10/05 04:11:05;;;;;;;19.53;12.40;;;;;;;9.90;97.56;95207.28;5021377;28;20201;-77
2021/10/05 04:13:30;;;;;;;21.53;13.70;;;;;;;9.93;97.71;95214.75;5021026;28;20194;-77
2021/10/05 04:15:55;;;;;;;19.67;13.47;;;;;;;9.89;97.31;95204.81;5070624;28;20188;-78
2021/10/05 04:18:21;;;;;;;21.60;13.77;;;;;;;9.83;97.50;95203.66;5020277;28;20303;-77
2021/10/05 04:20:46;;;;;;;20.83;13.77;;;;;;;9.80;97.13;95200.53;5034839;28;20185;-77
2021/10/05 04:23:12;;;;;;;21.70;14.27;;;;;;;9.85;97.51;95201.72;5056925;28;20212;-77
2021/10/05 04:25:37;;;;;;;21.87;13.73;;;;;;;9.88;97.90;95203.19;5035690;28;20177;-77
2021/10/05 04:28:03;;;;;;;21.30;13.70;;;;;;;9.86;97.45;95211.13;5036377;28;20236;-77
2021/10/05 04:30:28;;;;;;;19.20;12.70;;;;;;;9.82;97.38;95204.63;5035405;28;20194;-79
2021/10/05 04:32:53;;;;;;;19.07;12.20;;;;;;;9.77;97.43;95200.84;5036239;28;20189;-79
2021/10/05 04:35:20;;;;;;;19.50;11.77;;;;;;;9.78;97.73;95200.69;5051819;28;20186;-77
2021/10/05 04:37:45;;;;;;;16.87;10.43;;;;;;;9.80;97.80;95198.75;5036187;28;20285;-79
2021/10/05 04:40:11;;;;;;;20.20;13.07;;;;;;;9.78;97.81;95195.50;5037121;28;20215;-76
2021/10/05 04:42:38;;;;;;;20.23;14.17;;;;;;;9.80;97.44;95185.78;5052473;28;20703;-77
2021/10/05 04:45:04;;;;;;;21.93;16.73;;;;;;;9.79;97.33;95184.16;5051617;28;20186;-77
2021/10/05 04:47:29;;;;;;;21.60;15.03;;;;;;;9.81;97.58;95177.06;5036040;28;20194;-79
2021/10/05 04:49:55;;;;;;;21.60;13.30;;;;;;;9.82;97.30;95181.28;5037029;28;20692;-78
2021/10/05 04:52:20;;;;;;;20.13;12.97;;;;;;;9.78;97.45;95164.38;5054500;28;20205;-77
2021/10/05 04:54:45;;;;;;;19.97;13.23;;;;;;;9.82;97.56;95173.50;5037286;28;20195;-77
2021/10/05 04:57:10;;;;;;;18.57;11.90;;;;;;;9.80;97.85;95169.41;5038697;28;20202;-77
2021/10/05 04:59:36;;;;;;;19.00;12.53;;;;;;;9.79;97.75;95167.78;5038912;28;20186;-78
2021/10/05 05:02:01;;;;;;;16.33;10.80;;;;;;;9.75;97.80;95162.09;5057205;28;20173;-77
2021/10/05 05:04:26;;;;;;;17.43;11.50;;;;;;;9.76;97.75;95161.13;5057803;28;20256;-80
2021/10/05 05:06:52;;;;;;;16.00;10.90;;;;;;;9.78;97.81;95166.97;5059543;28;20201;-79
2021/10/05 05:09:17;;;;;;;17.60;12.07;;;;;;;9.78;97.83;95163.56;5056152;28;20185;-78
2021/10/05 05:11:43;;;;;;;17.00;10.53;;;;;;;9.75;98.05;95159.50;5040464;28;20212;-79
2021/10/05 05:14:10;;;;;;;14.93;9.80;;;;;;;9.76;97.92;95168.91;5040758;28;20181;-79
2021/10/05 05:16:35;;;;;;;18.97;11.70;;;;;;;9.79;97.81;95160.81;5059208;28;20166;-79
2021/10/05 05:19:01;;;;;;;14.97;10.73;;;;;;;9.74;98.06;95157.88;5057819;28;20641;-77
2021/10/05 05:21:26;;;;;;;15.80;9.90;;;;;;;9.72;98.00;95144.28;5050026;28;20177;-76
2021/10/05 05:23:52;;;;;;;14.67;10.03;;;;;;;9.68;97.98;95145.53;5050787;28;20646;-76
2021/10/05 05:26:17;;;;;;;15.40;10.20;;;;;;;9.71;97.83;95150.41;5057311;28;20216;-78
2021/10/05 05:28:42;;;;;;;13.83;8.80;;;;;;;9.69;98.07;95138.56;5046772;28;20198;-78
2021/10/05 05:31:08;;;;;;;15.67;9.30;;;;;;;9.74;98.12;95138.94;5062722;28;20255;-77
2021/10/05 05:33:33;;;;;;;13.20;9.47;;;;;;;9.76;97.70;95137.81;5077323;28;20253;-77
2021/10/05 05:35:58;;;;;;;13.87;9.37;;;;;;;9.79;98.07;95142.69;5047953;28;20173;-77
2021/10/05 05:38:26;;;;;;;15.23;10.03;;;;;;;9.79;98.05;95136.69;5072090;28;20239;-77
2021/10/05 05:40:51;;;;;;;13.07;9.27;;;;;;;9.82;97.92;95129.41;5075249;28;20188;-77
2021/10/05 05:43:16;;;;;;;13.37;9.10;;;;;;;9.83;97.65;95131.03;5047558;28;20192;-77
2021/10/05 05:45:41;;;;;;;12.37;8.50;;;;;;;9.83;97.47;95133.63;5041213;28;20189;-78
2021/10/05 05:48:07;;;;;;;14.30;9.20;;;;;;;9.78;97.71;95128.09;5043835;28;20205;-77
2021/10/05 05:50:32;;;;;;;13.67;9.60;;;;;;;9.78;97.54;95124.69;5080416;28;20649;-76
2021/10/05 05:52:58;;;;;;;13.03;9.03;;;;;;;9.81;97.55;95124.41;5063581;28;20181;-77
2021/10/05 05:55:23;;;;;;;13.03;9.33;;;;;;;9.83;97.48;95131.03;5072614;28;20207;-80
2021/10/05 05:57:50;;;;;;;15.40;9.70;;;;;;;9.91;97.52;95144.06;5073259;28;20197;-79
2021/10/05 06:00:17;;;;;;;13.70;8.33;;;;;;;9.89;97.37;95143.41;5070128;28;20181;-80
2021/10/05 06:02:42;;;;;;;12.90;8.57;;;;;;;9.93;97.37;95134.34;5076749;28;20632;-80
2021/10/05 06:05:08;;;;;;;11.23;7.53;;;;;;;9.91;97.08;95125.09;5075597;28;20192;-80
2021/10/05 06:07:33;;;;;;;10.63;7.73;;;;;;;9.93;96.70;95118.78;5081837;28;20212;-81
2021/10/05 06:09:58;;;;;;;10.83;8.10;;;;;;;9.96;97.02;95122.03;5066923;28;20188;-81
2021/10/05 06:12:27;;;;;;;11.80;8.63;;;;;;;9.96;96.60;95115.06;5063247;28;20196;-81
2021/10/05 06:14:52;;;;;;;10.73;8.07;;;;;;;9.99;96.86;95109.59;5068228;28;20184;-80
2021/10/05 06:17:17;;;;;;;10.93;8.27;;;;;;;10.04;96.42;95116.88;5065635;28;20279;-80
2021/10/05 06:19:42;;;;;;;10.87;7.73;;;;;;;10.05;96.39;95121.91;5083593;28;20203;-81
2021/10/05 06:22:08;;;;;;;10.93;8.13;;;;;;;10.06;96.27;95109.75;5049054;28;20181;-80
2021/10/05 06:24:33;;;;;;;10.57;8.30;;;;;;;10.07;95.98;95107.03;5077751;28;20203;-80
2021/10/05 06:26:58;;;;;;;12.47;8.37;;;;;;;10.09;96.28;95106.88;5073814;28;20296;-80
2021/10/05 06:29:24;;;;;;;11.83;7.87;;;;;;;10.08;95.97;95110.44;5070267;28;20197;-80
2021/10/05 06:31:49;;;;;;;11.30;8.30;;;;;;;10.00;95.95;95105.19;5047112;28;20219;-79
2021/10/05 06:34:15;;;;;;;12.20;8.10;;;;;;;9.99;96.07;95108.78;5062815;28;20170;-80
2021/10/05 06:36:40;;;;;;;9.23;7.23;;;;;;;9.99;95.93;95103.59;5072310;28;20354;-80
2021/10/05 06:39:05;;;;;;;11.03;7.90;;;;;;;9.99;95.66;95111.38;5072216;28;20236;-79
2021/10/05 06:41:31;;;;;;;10.27;7.90;;;;;;;10.04;95.42;95109.09;5078612;28;20658;-81
2021/10/05 06:43:56;;;;;;;9.07;6.93;;;;;;;10.04;95.76;95107.31;5075805;28;20208;-80
2021/10/05 06:46:21;;;;;;;10.03;6.90;;;;;;;10.13;95.56;95100.38;5051051;28;20177;-80
2021/10/05 06:48:47;;;;;;;11.77;7.20;;;;;;;10.19;95.58;95095.41;5056565;28;20209;-78
2021/10/05 06:51:13;;;;;;;9.50;7.13;;;;;;;10.24;95.41;95099.31;5056229;28;20304;-80
2021/10/05 06:53:38;;;;;;;10.87;7.37;;;;;;;10.29;95.02;95099.69;5055563;28;20189;-81
2021/10/05 06:56:03;;;;;;;10.33;7.30;;;;;;;10.37;95.07;95100.53;5053217;28;20199;-81
2021/10/05 06:58:29;;;;;;;8.83;6.70;;;;;;;10.47;94.98;95092.59;5066198;28;20699;-81
2021/10/05 07:00:54;;;;;;;9.57;7.20;;;;;;;10.41;94.83;95091.44;5059888;28;20188;-80
2021/10/05 07:03:20;;;;;;;8.67;6.53;;;;;;;10.37;94.78;95084.94;5067332;28;20192;-82
2021/10/05 07:05:45;;;;;;;9.37;6.80;;;;;;;10.52;94.53;95084.34;5068627;28;20212;-80
2021/10/05 07:08:11;;;;;;;6.80;5.30;;;;;;;10.43;94.28;95075.72;5050614;28;20258;-80
2021/10/05 07:10:39;;;;;;;8.07;6.17;;;;;;;10.64;93.91;95075.28;5068781;28;20271;-80
2021/10/05 07:13:05;;;;;;;7.80;6.60;;;;;;;10.78;93.97;95079.88;5051092;28;20188;-79
2021/10/05 07:15:31;;;;;;;7.10;5.83;;;;;;;10.91;93.46;95087.97;5051997;28;20193;-79
2021/10/05 07:17:56;;;;;;;6.70;6.00;;;;;;;10.98;92.68;95075.16;5052993;28;20929;-81
2021/10/05 07:20:22;;;;;;;7.20;5.90;;;;;;;11.05;93.02;95092.56;5069429;28;20189;-80
2021/10/05 07:22:48;;;;;;;7.37;6.03;;;;;;;11.09;92.50;95076.63;5045784;28;20242;-81
2021/10/05 07:25:13;;;;;;;6.87;5.73;;;;;;;11.03;92.40;95083.28;5068104;28;20185;-80
2021/10/05 07:27:39;;;;;;;8.03;5.80;;;;;;;11.00;92.21;95088.81;5055159;28;20937;-80
2021/10/05 07:30:05;;;;;;;5.97;5.00;;;;;;;10.93;92.86;95090.41;5039479;28;20185;-81
2021/10/05 07:32:31;;;;;;;6.93;5.10;;;;;;;11.07;92.34;95084.59;5060864;28;20219;-81
2021/10/05 07:34:56;;;;;;;6.53;5.83;;;;;;;11.12;92.56;95082.31;5067976;28;20189;-80
2021/10/05 07:37:22;;;;;;;5.43;4.43;;;;;;;11.20;91.10;95078.91;5052833;28;20326;-79
2021/10/05 07:39:47;;;;;;;6.03;4.93;;;;;;;11.35;91.34;95085.06;5051466;28;20597;-79
2021/10/05 07:42:13;;;;;;;5.80;5.20;;;;;;;11.49;91.52;95086.22;5057661;28;20216;-80
2021/10/05 07:44:39;;;;;;;5.07;4.50;;;;;;;11.59;91.23;95092.88;5048625;28;20205;-80
2021/10/05 07:47:04;;;;;;;5.30;4.80;;;;;;;11.54;90.71;95095.13;5061049;28;20239;-79
2021/10/05 07:49:29;;;;;;;6.17;4.50;;;;;;;11.63;90.50;95091.53;5053380;28;20224;-80
2021/10/05 07:51:55;;;;;;;6.20;4.60;;;;;;;11.64;89.79;95092.34;5080192;28;20204;-81
2021/10/05 07:54:20;;;;;;;5.30;4.80;;;;;;;11.81;90.32;95096.59;5070584;28;20272;-80
2021/10/05 07:56:45;;;;;;;5.50;4.60;;;;;;;11.81;90.05;95093.97;5073763;28;20207;-80
2021/10/05 07:59:11;;;;;;;6.47;4.97;;;;;;;11.79;89.80;95093.31;5052738;28;20234;-80
2021/10/05 08:01:37;;;;;;;5.17;4.67;;;;;;;11.60;90.04;95089.28;5074895;28;20197;-81
2021/10/05 08:04:04;;;;;;;5.10;4.37;;;;;;;11.69;89.98;95087.47;5070952;28;20289;-80
2021/10/05 08:06:30;;;;;;;4.37;3.97;;;;;;;11.75;90.12;95093.78;5067424;28;20208;-77
2021/10/05 08:08:55;;;;;;;5.20;3.80;;;;;;;11.62;90.48;95087.31;5066876;28;20556;-79
2021/10/05 08:11:21;;;;;;;4.53;4.00;;;;;;;11.52;90.41;95091.09;5069800;28;20231;-77
2021/10/05 08:13:47;;;;;;;4.43;3.90;;;;;;;11.54;90.60;95100.34;5070084;28;20664;-79
2021/10/05 08:16:13;;;;;;;5.20;4.00;;;;;;;11.41;91.41;95089.63;5060518;28;20209;-78
2021/10/05 08:18:38;;;;;;;5.37;4.27;;;;;;;11.30;91.90;95098.56;5047377;28;20646;-79
2021/10/05 08:21:03;;;;;;;5.03;4.20;;;;;;;11.41;91.84;95094.03;5056171;28;20286;-80
2021/10/05 08:23:29;;;;;;;4.40;3.80;;;;;;;11.41;92.02;95094.84;5072461;28;20181;-80
2021/10/05 08:25:55;;;;;;;4.43;4.00;;;;;;;11.40;92.20;95092.41;5039246;28;20271;-80
2021/10/05 08:28:20;;;;;;;5.03;4.53;;;;;;;11.41;92.11;95094.84;5070937;28;20197;-79
2021/10/05 08:30:47;;;;;;;4.73;4.23;;;;;;;11.31;92.47;95099.38;5053540;28;20637;-79
2021/10/05 08:33:13;;;;;;;4.90;4.50;;;;;;;11.31;92.56;95104.59;5052984;28;20189;-80
2021/10/05 08:35:38;;;;;;;4.80;4.30;;;;;;;11.31;92.61;95099.38;5056324;28;20195;-78
2021/10/05 08:38:05;;;;;;;4.47;4.07;;;;;;;11.27;92.99;95093.69;5055833;28;20211;-79
2021/10/05 08:40:31;;;;;;;5.30;4.37;;;;;;;11.37;93.07;95103.91;5041638;28;20682;-80
2021/10/05 08:42:56;;;;;;;5.10;4.20;;;;;;;11.47;92.80;95095.94;5047867;28;20216;-81
2021/10/05 08:45:21;;;;;;;3.67;3.37;;;;;;;11.46;92.16;95097.75;5051094;28;20577;-80
2021/10/05 08:47:48;;;;;;;4.00;3.60;;;;;;;11.55;92.34;95101.94;5067549;28;20204;-78
2021/10/05 08:50:14;;;;;;;3.47;3.17;;;;;;;11.58;91.93;95100.84;5068330;28;20636;-79
2021/10/05 08:52:43;;;;;;;3.90;2.93;;;;;;;11.59;91.60;95100.66;5070844;28;20254;-80
2021/10/05 08:55:08;;;;;;;3.47;3.17;;;;;;;11.68;91.63;95104.06;5070323;28;20188;-79
2021/10/05 08:57:34;;;;;;;4.50;3.70;;;;;;;11.62;91.54;95099.50;5070529;28;20197;-80
2021/10/05 09:00:04;;;;;;;4.80;3.80;;;;;;;11.66;91.59;95106.03;5051229;28;20189;-79
2021/10/05 09:02:51;;;;;;;4.00;3.70;;;;;;;11.69;90.73;95102.28;5067966;28;20177;-77
2021/10/05 09:05:16;;;;;;;4.47;4.07;;;;;;;11.53;91.21;95105.69;5052626;28;20560;-78
2021/10/05 09:07:48;;;;;;;4.93;4.40;;;;;;;11.41;91.80;95096.63;5071951;28;20197;-81
2021/10/05 09:10:15;;;;;;;6.00;4.57;;;;;;;11.26;92.75;95086.06;5072583;28;20177;-83
2021/10/05 09:12:41;;;;;;;4.47;4.07;;;;;;;11.40;92.67;95066.41;5050376;28;20202;-82
2021/10/05 09:15:09;;;;;;;4.40;4.00;;;;;;;11.61;92.59;95075.31;5056461;28;20195;-77
2021/10/05 09:17:35;;;;;;;4.30;3.50;;;;;;;11.80;92.81;95078.53;5068439;28;20201;-83
2021/10/05 09:20:00;;;;;;;4.03;2.83;;;;;;;11.73;91.71;95082.75;5053180;28;20247;-82
2021/10/05 09:22:28;;;;;;;2.63;2.40;;;;;;;11.93;91.45;95086.66;5070518;28;20222;-79
2021/10/05 09:24:55;;;;;;;1.80;1.70;;;;;;;12.05;90.37;95077.50;5037219;28;20193;-83
2021/10/05 09:27:21;;;;;;;3.60;1.67;;;;;;;12.24;88.84;95076.28;5062928;28;20228;-85
2021/10/05 09:29:50;;;;;;;1.80;1.57;;;;;;;12.30;86.95;95074.81;5043845;28;20231;-84
2021/10/05 09:32:17;;;;;;;1.80;1.50;;;;;;;12.22;88.54;95067.03;5043646;28;20665;-84
2021/10/05 09:34:54;;;;;;;1.50;1.40;;;;;;;12.59;86.29;95042.91;5068133;28;20181;-81
2021/10/05 09:37:25;;;;;;;1.70;1.60;;;;;;;12.60;86.63;95039.31;5041790;28;20706;-79
2021/10/05 09:39:57;;;;;;;1.50;1.40;;;;;;;12.50;86.94;95049.97;5061988;28;20184;-82
2021/10/05 09:42:23;;;;;;;1.90;1.80;;;;;;;12.58;87.73;95060.34;5045571;28;20193;-81
2021/10/05 09:44:50;;;;;;;4.53;2.47;;;;;;;12.77;85.81;95051.25;5077142;28;20713;-81
2021/10/05 09:47:15;;;;;;;2.80;2.60;;;;;;;12.95;86.07;95046.56;5081616;28;20228;-81
2021/10/05 09:49:43;;;;;;;2.90;2.50;;;;;;;13.23;85.95;95036.44;5075829;28;20185;-81
2021/10/05 09:52:09;;;;;;;2.33;2.13;;;;;;;13.49;83.72;95040.44;5057749;28;20201;-82
2021/10/05 09:54:34;;;;;;;2.87;2.67;;;;;;;13.54;84.41;95045.97;5073427;28;20212;-82
2021/10/05 09:57:00;;;;;;;3.60;3.30;;;;;;;13.47;82.67;95026.78;5076235;28;20209;-82
2021/10/05 09:59:25;;;;;;;3.17;2.87;;;;;;;13.36;83.07;95028.03;5049573;28;22113;-84
2021/10/05 10:01:52;;;;;;;2.50;2.30;;;;;;;13.33;83.86;95044.00;5049660;28;20177;-81
2021/10/05 10:04:22;;;;;;;2.43;2.23;;;;;;;13.37;84.49;95042.69;5069851;28;20296;-83
2021/10/05 10:06:47;;;;;;;1.87;1.60;;;;;;;13.23;82.13;95046.88;5064158;28;20208;-81
2021/10/05 10:09:13;;;;;;;2.00;1.80;;;;;;;13.24;82.33;95040.66;5060488;28;20212;-82
2021/10/05 10:11:38;;;;;;;2.57;1.67;;;;;;;13.36;82.70;95050.69;5086447;28;20240;-82
2021/10/05 10:14:03;;;;;;;1.57;1.47;;;;;;;13.10;82.56;95049.25;5071201;28;20173;-81
2021/10/05 10:16:33;;;;;;;1.73;1.60;;;;;;;13.31;82.64;95048.59;5072017;28;20177;-83
2021/10/05 10:18:59;;;;;;;2.20;1.90;;;;;;;13.30;82.35;95039.16;5046866;28;20185;-82
2021/10/05 10:21:27;;;;;;;1.90;1.80;;;;;;;13.22;82.93;95040.03;5058418;28;20821;-80
2021/10/05 10:24:07;;;;;;;2.70;1.60;;;;;;;13.25;82.83;95050.13;5069548;28;20169;-80
2021/10/05 10:26:32;;;;;;;2.37;1.80;;;;;;;13.57;82.00;95056.03;5038409;28;20543;-81
2021/10/05 10:28:58;;;;;;;2.37;2.17;;;;;;;13.76;82.49;95052.91;5051483;28;20215;-80
2021/10/05 10:31:32;;;;;;;3.97;1.93;;;;;;;13.69;81.31;95057.19;5054285;28;20212;-79
2021/10/05 10:33:57;;;;;;;1.30;1.20;;;;;;;14.11;80.08;95055.78;5054972;28;20668;-80
2021/10/05 10:36:31;;;;;;;1.67;1.57;;;;;;;14.12;81.13;95060.00;5073226;28;20208;-82
2021/10/05 10:39:13;;;;;;;1.93;1.73;;;;;;;14.05;80.36;95057.34;5056064;28;20181;-81
2021/10/05 10:41:40;;;;;;;1.60;1.50;;;;;;;14.16;79.26;95054.25;5056957;28;20177;-82
2021/10/05 10:44:06;;;;;;;1.57;1.47;;;;;;;14.05;79.53;95053.91;5053446;28;20191;-80
2021/10/05 10:46:35;;;;;;;1.50;1.40;;;;;;;14.22;80.12;95050.09;5070587;28;20189;-81
2021/10/05 10:49:03;;;;;;;2.40;1.83;;;;;;;13.95;81.31;95051.56;5070156;28;20668;-80
2021/10/05 10:51:32;;;;;;;2.10;1.87;;;;;;;14.10;80.25;95056.78;5070336;28;20193;-81
2021/10/05 10:54:00;;;;;;;2.67;1.80;;;;;;;13.98;80.11;95055.63;5054735;28;20221;-80
2021/10/05 10:56:32;;;;;;;2.30;1.87;;;;;;;13.95;79.47;95054.16;5040438;28;20169;-82
2021/10/05 10:59:03;;;;;;;2.37;2.17;;;;;;;13.88;79.35;95063.72;5044455;28;20184;-81
2021/10/05 11:01:41;;;;;;;1.87;1.70;;;;;;;13.54;80.85;95064.22;5040643;28;20192;-81
2021/10/05 11:04:07;;;;;;;2.60;1.83;;;;;;;13.42;80.98;95060.41;5060360;28;20204;-80
2021/10/05 11:06:33;;;;;;;2.83;2.60;;;;;;;13.23;82.26;95057.31;5045548;28;20181;-81
2021/10/05 11:08:59;;;;;;;2.27;1.70;;;;;;;13.36;82.09;95055.91;5070364;28;20188;-79
2021/10/05 11:11:30;;;;;;;2.93;1.80;;;;;;;13.31;82.74;95049.41;5044269;28;20199;-79
2021/10/05 11:13:57;;;;;;;1.90;1.80;;;;;;;13.46;82.00;95046.03;5053229;28;20922;-82
2021/10/05 11:16:23;;;;;;;1.60;1.50;;;;;;;13.55;80.48;95039.75;5041009;28;20189;-81
2021/10/05 11:18:50;;;;;;;1.60;1.50;;;;;;;13.56;81.19;95041.38;5063472;28;20222;-81
2021/10/05 11:21:16;;;;;;;1.30;1.10;;;;;;;13.69;81.06;95041.53;5040529;28;20178;-81
2021/10/05 11:23:43;;;;;;;1.00;1.00;;;;;;;13.76;80.40;95032.03;5070039;28;20173;-82
2021/10/05 11:26:09;;;;;;;1.10;1.00;;;;;;;13.97;79.63;95043.56;5062953;28;20683;-81